Alzada, Montana
Current Conditions -  °F | °C
As of 6:35 PM on Friday 21 Nov 2014 (Local Time) from KSPF Reporting Station
Clear Clear  
Wind Chill: 34°   Ceiling: Unl
Heat Index: 34°   Visibility: 10mi
Dew Point: 23°   Wind: 0mph
Humidity: 65%   Direction: NA
Pressure: 29.83"   Gusts: NA
Location:  45.03°N, 104.42°W
Report Text: KSPF 220135Z AUTO 00000KT 10SM CLR 01/M05 A2983 RMK AO2
Loading
Personal Weather Stations






























Interactive Weather Map New forecast layout! Learn more

10-Day Weather Forecast

Advertisements
Track Severe Weather on mobile